createdAt,value
2017-07-15T00:01:29.828Z,4.28
2017-07-15T00:03:57.397Z,4.10
2017-07-15T00:06:25.007Z,5.18
2017-07-15T00:08:54.097Z,4.62
2017-07-15T00:11:22.471Z,5.30
2017-07-15T00:13:50.813Z,4.90
2017-07-15T00:16:18.372Z,4.53
2017-07-15T00:18:45.961Z,5.57
2017-07-15T00:21:13.537Z,4.62
2017-07-15T00:23:42.171Z,6.05
2017-07-15T00:26:09.751Z,4.95
2017-07-15T00:28:37.340Z,5.40
2017-07-15T00:31:05.698Z,5.20
2017-07-15T00:33:33.271Z,4.80
2017-07-15T00:36:00.840Z,4.93
2017-07-15T00:38:29.283Z,3.70
2017-07-15T00:40:56.839Z,4.18
2017-07-15T00:43:24.420Z,4.70
2017-07-15T00:45:51.995Z,5.00
2017-07-15T00:48:19.580Z,4.95
2017-07-15T00:50:47.910Z,4.83
2017-07-15T00:53:15.543Z,5.82
2017-07-15T00:55:43.196Z,4.97
2017-07-15T00:58:10.777Z,5.12
2017-07-15T01:00:38.349Z,5.10
2017-07-15T01:03:05.934Z,4.25
2017-07-15T01:05:33.497Z,4.10
2017-07-15T01:08:01.091Z,5.18
2017-07-15T01:10:29.431Z,5.80
2017-07-15T01:12:57.007Z,5.10
2017-07-15T01:15:24.583Z,5.35
2017-07-15T01:17:52.159Z,5.05
2017-07-15T01:20:20.563Z,6.55
2017-07-15T01:22:48.142Z,6.45
2017-07-15T01:25:15.731Z,5.45
2017-07-15T01:27:43.314Z,6.30
2017-07-15T01:30:11.638Z,5.05
2017-07-15T01:32:39.236Z,5.68
2017-07-15T01:35:06.803Z,5.25
2017-07-15T01:37:34.490Z,5.47
2017-07-15T01:40:02.854Z,6.25
2017-07-15T01:42:30.403Z,6.30
2017-07-15T01:44:57.971Z,5.72
2017-07-15T01:47:25.619Z,6.72
2017-07-15T01:49:53.207Z,6.72
2017-07-15T01:52:21.544Z,7.82
2017-07-15T01:54:49.200Z,8.20
2017-07-15T01:57:16.787Z,7.22
2017-07-15T01:59:44.359Z,6.03
2017-07-15T02:02:11.940Z,6.93
2017-07-15T02:04:40.683Z,6.97
2017-07-15T02:07:08.262Z,8.48
2017-07-15T02:09:35.824Z,7.55
2017-07-15T02:12:03.396Z,6.22
2017-07-15T02:14:30.975Z,7.68
2017-07-15T02:16:59.342Z,8.70
2017-07-15T02:19:26.936Z,8.77
2017-07-15T02:21:54.530Z,8.32
2017-07-15T02:24:22.111Z,10.88
2017-07-15T02:26:49.679Z,7.30
2017-07-15T02:29:17.267Z,8.05
2017-07-15T02:31:45.595Z,8.40
2017-07-15T02:34:13.328Z,7.18
2017-07-15T02:36:40.907Z,7.35
2017-07-15T02:39:08.474Z,7.25
2017-07-15T02:41:36.027Z,8.13
2017-07-15T02:44:03.622Z,6.78
2017-07-15T02:46:31.223Z,6.90
2017-07-15T02:48:58.815Z,8.48
2017-07-15T02:51:26.395Z,7.40
2017-07-15T02:53:53.967Z,7.87
2017-07-15T02:56:21.543Z,7.95
2017-07-15T02:58:49.121Z,9.30
2017-07-15T03:01:17.451Z,11.05
2017-07-15T03:03:45.011Z,8.90
2017-07-15T03:06:12.607Z,12.50
2017-07-15T03:08:40.165Z,11.95
2017-07-15T03:11:07.739Z,11.60
2017-07-15T03:13:35.307Z,10.25
2017-07-15T03:16:02.862Z,8.43
2017-07-15T03:18:31.215Z,10.55
2017-07-15T03:20:58.774Z,10.30
2017-07-15T03:23:26.359Z,10.60
2017-07-15T03:25:54.699Z,8.40
2017-07-15T03:28:22.284Z,9.20
2017-07-15T03:30:49.835Z,7.97
2017-07-15T03:33:17.455Z,7.35
2017-07-15T03:35:45.022Z,7.97
2017-07-15T03:38:12.626Z,6.35
2017-07-15T03:40:40.203Z,6.50
2017-07-15T03:43:08.540Z,6.78
2017-07-15T03:45:36.175Z,5.65
2017-07-15T03:48:03.757Z,6.68
2017-07-15T03:50:31.373Z,6.55
2017-07-15T03:52:59.730Z,7.70
2017-07-15T03:55:27.333Z,6.63
2017-07-15T03:57:54.906Z,5.62
2017-07-15T04:00:22.479Z,4.70
2017-07-15T04:02:50.091Z,5.17
2017-07-15T04:05:18.443Z,5.40
2017-07-15T04:07:46.025Z,7.50
2017-07-15T04:10:13.575Z,4.50
2017-07-15T04:12:41.159Z,5.00
2017-07-15T04:15:09.502Z,4.00
2017-07-15T04:17:37.062Z,4.57
2017-07-15T04:20:04.635Z,4.80
2017-07-15T04:22:32.209Z,5.37
2017-07-15T04:25:00.548Z,5.00
2017-07-15T04:27:28.118Z,4.87
2017-07-15T04:29:55.695Z,5.03
2017-07-15T04:32:23.246Z,4.17
2017-07-15T04:34:50.831Z,3.87
2017-07-15T04:37:18.416Z,4.63
2017-07-15T04:39:46.806Z,4.57
2017-07-15T04:42:14.365Z,4.53
2017-07-15T04:44:41.934Z,3.60
2017-07-15T04:47:09.525Z,3.70
2017-07-15T04:49:37.078Z,2.90
2017-07-15T04:52:04.639Z,3.93
2017-07-15T04:54:32.973Z,3.83
2017-07-15T04:57:01.330Z,4.37
2017-07-15T04:59:28.891Z,3.93
2017-07-15T05:01:56.494Z,3.50
2017-07-15T05:04:24.067Z,3.60
2017-07-15T05:06:51.658Z,3.47
2017-07-15T05:09:19.218Z,4.40
2017-07-15T05:11:46.818Z,4.00
2017-07-15T05:14:15.148Z,3.37
2017-07-15T05:16:42.731Z,3.67
2017-07-15T05:19:10.287Z,3.90
2017-07-15T05:21:37.851Z,3.23
2017-07-15T05:24:05.431Z,4.00
2017-07-15T05:26:33.001Z,4.00
2017-07-15T05:29:00.550Z,3.93
2017-07-15T05:31:28.087Z,3.17
2017-07-15T05:33:55.649Z,3.17
2017-07-15T05:36:23.226Z,3.70
2017-07-15T05:38:50.796Z,3.20
2017-07-15T05:41:18.438Z,3.80
2017-07-15T05:43:46.026Z,3.40
2017-07-15T05:46:13.688Z,4.00
2017-07-15T05:48:41.266Z,2.87
2017-07-15T05:51:09.606Z,3.40
2017-07-15T05:53:37.183Z,3.00
2017-07-15T05:56:04.739Z,3.63
2017-07-15T05:58:32.388Z,3.90
2017-07-15T06:00:59.984Z,4.27
2017-07-15T06:03:28.323Z,3.47
2017-07-15T06:05:55.961Z,3.60
2017-07-15T06:08:23.711Z,3.60
2017-07-15T06:10:52.039Z,3.57
2017-07-15T06:13:19.633Z,4.10
2017-07-15T06:15:47.201Z,3.47
2017-07-15T06:18:15.594Z,5.23
2017-07-15T06:20:43.954Z,3.07
2017-07-15T06:23:11.674Z,2.83
2017-07-15T06:25:39.281Z,2.50
2017-07-15T06:28:06.858Z,2.20
2017-07-15T06:30:35.305Z,2.93
2017-07-15T06:33:02.891Z,2.70
2017-07-15T06:35:30.483Z,3.13
2017-07-15T06:37:58.073Z,2.30
2017-07-15T06:40:25.653Z,2.27
2017-07-15T06:42:53.225Z,2.10
2017-07-15T06:45:20.892Z,2.47
2017-07-15T06:47:48.547Z,2.40
2017-07-15T06:50:16.136Z,2.10
2017-07-15T06:52:44.470Z,2.50
2017-07-15T06:55:13.411Z,2.43
2017-07-15T06:57:41.017Z,2.63
2017-07-15T07:00:08.611Z,2.60
2017-07-15T07:02:36.175Z,2.30
2017-07-15T07:05:03.731Z,2.30
2017-07-15T07:07:31.298Z,2.67
2017-07-15T07:09:58.883Z,2.47
2017-07-15T07:12:27.226Z,2.50
2017-07-15T07:14:54.790Z,2.40
2017-07-15T07:17:22.383Z,2.87
2017-07-15T07:19:50.830Z,2.20
2017-07-15T07:22:18.377Z,2.77
2017-07-15T07:24:46.010Z,2.40
2017-07-15T07:27:14.359Z,2.37
2017-07-15T07:29:42.496Z,2.17
2017-07-15T07:32:10.056Z,3.10
2017-07-15T07:34:37.719Z,2.00
2017-07-15T07:37:05.338Z,1.87
2017-07-15T07:39:33.686Z,2.00
2017-07-15T07:42:01.259Z,2.63
2017-07-15T07:44:28.818Z,1.93
2017-07-15T07:46:56.579Z,1.67
2017-07-15T07:49:24.148Z,2.20
2017-07-15T07:51:51.803Z,2.00
2017-07-15T07:54:19.375Z,2.30
2017-07-15T07:56:46.936Z,2.37
2017-07-15T07:59:14.614Z,1.87
2017-07-15T08:01:42.951Z,2.03
2017-07-15T08:04:10.538Z,2.33
2017-07-15T08:06:38.103Z,1.77
2017-07-15T08:09:05.656Z,1.77
2017-07-15T08:11:33.254Z,1.50
2017-07-15T08:14:00.866Z,1.40
2017-07-15T08:16:28.465Z,1.53
2017-07-15T08:18:56.040Z,1.57
2017-07-15T08:21:24.385Z,2.00
2017-07-15T08:23:51.956Z,1.97
2017-07-15T08:26:19.532Z,1.60
2017-07-15T08:28:47.083Z,1.57
2017-07-15T08:31:14.667Z,1.70
2017-07-15T08:33:43.001Z,1.60
2017-07-15T08:36:10.579Z,1.50
2017-07-15T08:38:38.722Z,2.17
2017-07-15T08:41:06.334Z,1.80
2017-07-15T08:43:33.948Z,1.57
2017-07-15T08:46:01.504Z,1.60
2017-07-15T08:48:29.081Z,1.57
2017-07-15T08:50:56.668Z,1.40
2017-07-15T08:53:24.359Z,1.53
2017-07-15T08:55:52.861Z,1.30
2017-07-15T08:58:20.423Z,1.67
2017-07-15T09:00:48.023Z,1.40
2017-07-15T09:03:15.681Z,1.13
2017-07-15T09:05:43.254Z,1.67
2017-07-15T09:08:10.911Z,0.93
2017-07-15T09:10:38.482Z,1.23
2017-07-15T09:13:06.063Z,1.27
2017-07-15T09:15:33.778Z,1.70
2017-07-15T09:18:01.375Z,1.27
2017-07-15T09:20:29.720Z,1.60
2017-07-15T09:22:57.377Z,1.30
2017-07-15T09:25:24.937Z,1.13
2017-07-15T09:27:52.583Z,1.37
2017-07-15T09:30:20.137Z,1.10
2017-07-15T09:32:47.718Z,1.30
2017-07-15T09:35:15.314Z,1.30
2017-07-15T09:37:42.882Z,0.97
2017-07-15T09:40:10.955Z,1.47
2017-07-15T09:42:38.541Z,1.50
2017-07-15T09:45:06.868Z,1.10
2017-07-15T09:47:34.447Z,1.37
2017-07-15T09:50:02.012Z,1.37
2017-07-15T09:52:29.572Z,1.10
2017-07-15T09:54:57.186Z,0.87
2017-07-15T09:57:24.796Z,1.07
2017-07-15T09:59:52.355Z,1.10
2017-07-15T10:02:19.931Z,1.37
2017-07-15T10:04:47.523Z,1.30
2017-07-15T10:07:15.925Z,1.70
2017-07-15T10:09:43.499Z,1.23
2017-07-15T10:12:11.113Z,1.00
2017-07-15T10:14:38.665Z,1.03
2017-07-15T10:17:06.223Z,1.20
2017-07-15T10:19:33.804Z,1.07
2017-07-15T10:22:01.387Z,1.03
2017-07-15T10:24:28.999Z,1.00
2017-07-15T10:26:56.561Z,1.17
2017-07-15T10:29:24.162Z,1.13
2017-07-15T10:31:51.757Z,1.00
2017-07-15T10:34:19.323Z,1.57
2017-07-15T10:36:47.730Z,1.27
2017-07-15T10:39:15.310Z,1.30
2017-07-15T10:41:43.225Z,0.80
2017-07-15T10:44:10.829Z,0.87
2017-07-15T10:46:38.543Z,0.90
2017-07-15T10:49:06.178Z,1.40
2017-07-15T10:51:33.698Z,1.33
2017-07-15T10:54:01.285Z,1.00
2017-07-15T10:56:28.839Z,0.90
2017-07-15T10:58:56.410Z,1.00
2017-07-15T11:01:24.031Z,1.17
2017-07-15T11:03:51.608Z,1.10
2017-07-15T11:06:19.201Z,1.00
2017-07-15T11:08:46.776Z,1.50
2017-07-15T11:11:15.144Z,1.33
2017-07-15T11:13:43.629Z,1.57
2017-07-15T11:16:11.199Z,1.00
2017-07-15T11:18:39.534Z,0.80
2017-07-15T11:21:07.139Z,0.90
2017-07-15T11:23:34.727Z,1.07
2017-07-15T11:26:03.058Z,1.00
2017-07-15T11:28:30.610Z,1.40
2017-07-15T11:30:58.196Z,0.90
2017-07-15T11:33:25.780Z,0.93
2017-07-15T11:35:53.351Z,1.07
2017-07-15T11:38:21.704Z,1.37
2017-07-15T11:40:49.389Z,1.10
2017-07-15T11:43:17.772Z,0.90
2017-07-15T11:45:46.114Z,1.13
2017-07-15T11:48:13.681Z,1.20
2017-07-15T11:50:41.295Z,1.07
2017-07-15T11:53:09.644Z,1.30
2017-07-15T11:55:37.230Z,1.00
2017-07-15T11:58:05.580Z,1.00
2017-07-15T12:00:33.200Z,0.90
2017-07-15T12:03:00.759Z,1.43
2017-07-15T12:05:28.347Z,1.30
2017-07-15T12:07:55.905Z,1.13
2017-07-15T12:10:23.556Z,1.10
2017-07-15T12:12:51.649Z,1.07
2017-07-15T12:15:19.245Z,1.33
2017-07-15T12:17:46.823Z,1.40
2017-07-15T12:20:15.152Z,1.20
2017-07-15T12:22:42.768Z,1.40
2017-07-15T12:25:11.133Z,1.40
2017-07-15T12:27:38.724Z,1.50
2017-07-15T12:30:07.040Z,1.70
2017-07-15T12:32:34.605Z,1.40
2017-07-15T12:35:02.167Z,0.90
2017-07-15T12:37:29.846Z,1.43
2017-07-15T12:39:58.570Z,1.67
2017-07-15T12:42:26.920Z,1.63
2017-07-15T12:44:54.499Z,1.70
2017-07-15T12:47:22.143Z,1.07
2017-07-15T12:49:49.711Z,1.23
2017-07-15T12:52:17.291Z,1.30
2017-07-15T12:54:44.866Z,1.07
2017-07-15T12:57:13.203Z,1.37
2017-07-15T12:59:40.773Z,2.10
2017-07-15T13:02:08.355Z,1.27
2017-07-15T13:04:35.948Z,1.30
2017-07-15T13:07:03.515Z,1.10
2017-07-15T13:09:31.083Z,1.10
2017-07-15T13:11:58.659Z,1.80
2017-07-15T13:14:26.229Z,0.90
2017-07-15T13:16:53.832Z,0.93
2017-07-15T13:19:21.387Z,1.10
2017-07-15T13:21:48.949Z,1.43
2017-07-15T13:24:16.507Z,1.13
2017-07-15T13:26:44.082Z,1.23
2017-07-15T13:29:11.763Z,0.90
2017-07-15T13:31:40.091Z,1.07
2017-07-15T13:34:07.672Z,1.27
2017-07-15T13:36:35.243Z,1.00
2017-07-15T13:39:02.810Z,1.07
2017-07-15T13:41:30.355Z,1.23
2017-07-15T13:43:58.168Z,1.20
2017-07-15T13:46:27.074Z,1.30
2017-07-15T13:48:54.764Z,1.50
2017-07-15T13:51:22.343Z,1.60
2017-07-15T13:53:49.903Z,1.20
2017-07-15T13:56:17.498Z,1.30
2017-07-15T13:58:45.821Z,1.37
2017-07-15T14:01:13.407Z,1.60
2017-07-15T14:03:40.998Z,1.50
2017-07-15T14:06:08.569Z,1.07
2017-07-15T14:08:36.891Z,1.73
2017-07-15T14:11:04.470Z,1.70
2017-07-15T14:13:32.155Z,1.20
2017-07-15T14:15:59.738Z,1.57
2017-07-15T14:18:28.060Z,1.50
2017-07-15T14:20:55.629Z,1.50
2017-07-15T14:23:23.192Z,1.20
2017-07-15T14:25:50.762Z,1.37
2017-07-15T14:28:18.399Z,1.20
2017-07-15T14:30:45.980Z,1.57
2017-07-15T14:33:13.538Z,1.87
2017-07-15T14:35:41.145Z,1.53
2017-07-15T14:38:08.785Z,1.30
2017-07-15T14:40:36.367Z,1.30
2017-07-15T14:43:03.948Z,2.07
2017-07-15T14:45:32.298Z,1.40
2017-07-15T14:48:00.022Z,1.53
2017-07-15T14:50:27.571Z,1.50
2017-07-15T14:52:55.911Z,1.47
2017-07-15T14:55:23.499Z,1.30
2017-07-15T14:57:51.820Z,1.40
2017-07-15T15:00:19.387Z,1.40
2017-07-15T15:02:46.964Z,1.20
2017-07-15T15:05:14.679Z,1.63
2017-07-15T15:07:43.083Z,1.33
2017-07-15T15:10:10.661Z,1.43
2017-07-15T15:12:38.414Z,1.67
2017-07-15T15:15:05.981Z,1.47
2017-07-15T15:17:33.749Z,1.53
2017-07-15T15:20:01.342Z,1.30
2017-07-15T15:22:28.905Z,1.40
2017-07-15T15:24:56.542Z,1.33
2017-07-15T15:27:24.102Z,1.73
2017-07-15T15:29:51.673Z,1.30
2017-07-15T15:32:19.392Z,1.57
2017-07-15T15:34:47.716Z,1.50
2017-07-15T15:37:15.376Z,1.47
2017-07-15T15:39:42.945Z,1.80
2017-07-15T15:42:10.517Z,2.00
2017-07-15T15:44:38.858Z,2.33
2017-07-15T15:47:06.441Z,2.60
2017-07-15T15:49:34.706Z,2.30
2017-07-15T15:52:02.303Z,1.97
2017-07-15T15:54:30.751Z,1.87
2017-07-15T15:56:58.319Z,1.50
2017-07-15T15:59:25.942Z,2.00
2017-07-15T16:01:53.516Z,2.33
2017-07-15T16:04:21.132Z,1.50
2017-07-15T16:06:49.529Z,1.90
2017-07-15T16:09:17.980Z,1.60
2017-07-15T16:11:46.533Z,2.50
2017-07-15T16:14:14.096Z,1.40
2017-07-15T16:16:41.660Z,1.80
2017-07-15T16:19:09.251Z,2.00
2017-07-15T16:21:36.811Z,1.70
2017-07-15T16:24:04.391Z,1.80
2017-07-15T16:26:33.414Z,2.00
2017-07-15T16:29:01.011Z,1.80
2017-07-15T16:31:28.673Z,2.20
2017-07-15T16:33:56.243Z,2.30
2017-07-15T16:36:23.825Z,1.77
2017-07-15T16:38:51.410Z,2.00
2017-07-15T16:41:19.759Z,2.23
2017-07-15T16:43:47.335Z,2.03
2017-07-15T16:46:14.955Z,2.67
2017-07-15T16:48:42.583Z,4.80
2017-07-15T16:51:10.962Z,15.37
2017-07-15T16:53:39.343Z,50.77
2017-07-15T16:56:08.666Z,3.20
2017-07-15T16:58:36.246Z,3.13
2017-07-15T17:01:03.838Z,2.80
2017-07-15T17:03:31.409Z,3.33
2017-07-15T17:05:59.034Z,2.80
2017-07-15T17:08:26.607Z,1.80
2017-07-15T17:10:54.944Z,2.37
2017-07-15T17:13:22.619Z,4.20
2017-07-15T17:15:50.284Z,2.20
2017-07-15T17:18:17.927Z,2.50
2017-07-15T17:20:45.497Z,3.17
2017-07-15T17:23:13.093Z,3.00
2017-07-15T17:25:40.699Z,2.60
2017-07-15T17:28:08.320Z,2.60
2017-07-15T17:30:35.889Z,5.00
2017-07-15T17:33:03.453Z,2.90
2017-07-15T17:35:31.850Z,3.20
2017-07-15T17:38:00.186Z,5.70
2017-07-15T17:40:27.820Z,3.80
2017-07-15T17:42:55.437Z,2.00
2017-07-15T17:45:23.799Z,3.07
2017-07-15T17:47:51.400Z,3.10
2017-07-15T17:50:19.721Z,2.90
2017-07-15T17:52:47.381Z,2.17
2017-07-15T17:55:14.964Z,3.17
2017-07-15T17:57:42.622Z,3.30
2017-07-15T18:00:10.252Z,3.27
2017-07-15T18:02:37.827Z,3.40
2017-07-15T18:05:05.451Z,2.30
2017-07-15T18:07:33.816Z,2.47
2017-07-15T18:10:01.409Z,4.10
2017-07-15T18:12:29.767Z,2.40
2017-07-15T18:14:57.355Z,2.17
2017-07-15T18:17:24.942Z,2.10
2017-07-15T18:19:52.604Z,3.90
2017-07-15T18:22:20.286Z,2.40
2017-07-15T18:24:47.889Z,2.13
2017-07-15T18:27:15.443Z,3.73
2017-07-15T18:29:43.021Z,2.50
2017-07-15T18:32:11.483Z,2.43
2017-07-15T18:34:39.075Z,2.20
2017-07-15T18:37:07.503Z,2.80
2017-07-15T18:39:35.167Z,2.67
2017-07-15T18:42:02.782Z,2.50
2017-07-15T18:44:30.432Z,2.47
2017-07-15T18:46:58.808Z,2.33
2017-07-15T18:49:26.419Z,2.17
2017-07-15T18:51:54.188Z,1.80
2017-07-15T18:54:21.807Z,2.97
2017-07-15T18:56:49.501Z,2.50
2017-07-15T18:59:17.084Z,2.77
2017-07-15T19:01:44.699Z,3.87
2017-07-15T19:04:12.363Z,3.93
2017-07-15T19:06:40.065Z,3.20
2017-07-15T19:09:07.671Z,2.70
2017-07-15T19:11:35.320Z,2.37
2017-07-15T19:14:02.888Z,3.23
2017-07-15T19:16:30.472Z,2.93
2017-07-15T19:18:58.036Z,5.03
2017-07-15T19:21:25.611Z,2.90
2017-07-15T19:23:53.963Z,2.20
2017-07-15T19:26:21.526Z,2.37
2017-07-15T19:28:49.120Z,2.70
2017-07-15T19:31:17.727Z,4.40
2017-07-15T19:33:45.282Z,2.93
2017-07-15T19:36:12.872Z,3.77
2017-07-15T19:38:40.434Z,2.50
2017-07-15T19:41:08.058Z,2.90
2017-07-15T19:43:36.419Z,2.63
2017-07-15T19:46:03.985Z,2.57
2017-07-15T19:48:31.543Z,2.80
2017-07-15T19:50:59.276Z,2.87
2017-07-15T19:53:26.848Z,2.73
2017-07-15T19:55:55.078Z,3.80
2017-07-15T19:58:25.390Z,3.77
2017-07-15T20:00:53.163Z,2.67
2017-07-15T20:03:21.646Z,3.33
2017-07-15T20:05:49.276Z,2.40
2017-07-15T20:08:17.536Z,3.20
2017-07-15T20:10:45.457Z,3.10
2017-07-15T20:13:13.115Z,3.33
2017-07-15T20:15:40.744Z,2.70
2017-07-15T20:18:08.395Z,3.50
2017-07-15T20:20:36.033Z,3.77
2017-07-15T20:23:03.647Z,3.30
2017-07-15T20:25:31.226Z,4.60
2017-07-15T20:27:58.988Z,4.70
2017-07-15T20:30:26.684Z,3.93
2017-07-15T20:32:54.328Z,3.40
2017-07-15T20:35:21.973Z,3.53
2017-07-15T20:37:49.560Z,3.30
2017-07-15T20:40:17.302Z,4.57
2017-07-15T20:42:45.690Z,3.33
2017-07-15T20:45:13.339Z,3.77
2017-07-15T20:47:41.656Z,4.23
2017-07-15T20:50:09.275Z,3.63
2017-07-15T20:52:43.337Z,3.60
2017-07-15T20:55:11.000Z,3.60
2017-07-15T20:57:38.635Z,3.80
2017-07-15T21:00:06.314Z,4.10
2017-07-15T21:02:33.941Z,3.80
2017-07-15T21:05:01.638Z,3.40
2017-07-15T21:07:29.340Z,3.77
2017-07-15T21:09:57.021Z,4.10
2017-07-15T21:12:24.801Z,3.70
2017-07-15T21:14:52.473Z,4.40
2017-07-15T21:17:21.003Z,4.60
2017-07-15T21:19:48.792Z,3.60
2017-07-15T21:22:16.400Z,2.83
2017-07-15T21:24:44.842Z,3.87
2017-07-15T21:27:12.427Z,3.37
2017-07-15T21:29:40.831Z,3.83
2017-07-15T21:32:08.512Z,3.20
2017-07-15T21:34:36.131Z,3.00
2017-07-15T21:37:03.782Z,3.30
2017-07-15T21:39:31.500Z,2.83
2017-07-15T21:42:00.074Z,3.67
2017-07-15T21:44:27.781Z,4.07
2017-07-15T21:46:55.519Z,4.07
2017-07-15T21:49:23.437Z,3.43
2017-07-15T21:51:51.110Z,3.87
2017-07-15T21:54:18.786Z,3.90
2017-07-15T21:56:47.162Z,3.90
2017-07-15T21:59:15.519Z,3.77
2017-07-15T22:01:43.192Z,4.50
2017-07-15T22:04:10.812Z,5.60
2017-07-15T22:06:38.535Z,4.23
2017-07-15T22:09:06.095Z,4.03
2017-07-15T22:11:33.745Z,4.73
2017-07-15T22:14:01.340Z,3.93
2017-07-15T22:16:29.680Z,3.80
2017-07-15T22:18:57.243Z,4.67
2017-07-15T22:21:24.899Z,4.00
2017-07-15T22:23:54.205Z,3.40
2017-07-15T22:26:21.760Z,3.30
2017-07-15T22:28:49.338Z,2.80
2017-07-15T22:31:17.096Z,2.93
2017-07-15T22:33:44.734Z,3.80
2017-07-15T22:36:12.384Z,2.87
2017-07-15T22:38:40.056Z,3.80
2017-07-15T22:41:07.658Z,3.27
2017-07-15T22:43:36.166Z,2.60
2017-07-15T22:46:04.541Z,2.97
2017-07-15T22:48:32.484Z,3.90
2017-07-15T22:51:00.065Z,2.73
2017-07-15T22:53:27.647Z,2.77
2017-07-15T22:55:55.995Z,3.07
2017-07-15T22:58:23.592Z,3.03
2017-07-15T23:00:51.914Z,3.30
2017-07-15T23:03:19.511Z,3.40
2017-07-15T23:05:47.198Z,3.40
2017-07-15T23:08:14.887Z,2.90
2017-07-15T23:10:42.605Z,3.20
2017-07-15T23:13:10.257Z,2.97
2017-07-15T23:15:37.859Z,3.13
2017-07-15T23:18:15.359Z,3.00
2017-07-15T23:20:42.943Z,3.30
2017-07-15T23:23:10.498Z,3.93
2017-07-15T23:25:38.093Z,4.47
2017-07-15T23:28:05.659Z,3.87
2017-07-15T23:30:33.250Z,3.10
2017-07-15T23:33:01.618Z,4.13
2017-07-15T23:35:29.187Z,3.70
2017-07-15T23:37:56.781Z,3.90
2017-07-15T23:40:24.356Z,4.13
2017-07-15T23:42:51.943Z,3.70
2017-07-15T23:45:19.503Z,3.60
2017-07-15T23:47:47.068Z,3.20
2017-07-15T23:50:14.674Z,3.60
2017-07-15T23:52:43.023Z,3.27
2017-07-15T23:55:10.626Z,3.03
2017-07-15T23:57:38.174Z,3.33
